Time;durP1;ratioP1;P1;durP2;ratioP2;P2;SDS_P1;SDS_P2;PMS_P1;PMS_P2;Temp;Humidity;BMP_temperature;BMP_pressure;BME280_temperature;BME280_humidity;BME280_pressure;Samples;Min_cycle;Max_cycle;Signal;HPM_P1;HPM_P2
2021/12/29 00:03:30;;;;;;;10.23;2.60;;;;;;;9.94;70.53;96292.09;8490436;27;20239;-73
2021/12/29 00:07:35;;;;;;;8.47;2.03;;;;;;;9.94;70.59;96305.03;8518814;27;20229;-73
2021/12/29 00:11:40;;;;;;;7.03;2.40;;;;;;;10.49;68.31;96300.41;8516688;27;20419;-71
2021/12/29 00:15:43;;;;;;;8.27;2.33;;;;;;;10.16;69.89;96306.94;8518047;27;20229;-71
2021/12/29 00:19:48;;;;;;;5.63;1.83;;;;;;;10.17;69.42;96306.03;8517996;27;20244;-72
2021/12/29 00:23:58;;;;;;;10.00;2.33;;;;;;;10.14;69.89;96305.41;8517861;27;20239;-72
2021/12/29 00:28:01;;;;;;;12.90;3.90;;;;;;;11.94;74.06;96310.59;8517640;27;20429;-68
2021/12/29 00:32:05;;;;;;;5.10;1.73;;;;;;;11.00;67.93;96321.84;8517127;27;20567;-76
2021/12/29 00:36:08;;;;;;;9.33;2.27;;;;;;;10.61;68.75;96327.19;8506495;27;20229;-77
2021/12/29 00:40:13;;;;;;;12.25;3.28;;;;;;;11.50;73.25;96330.31;8516750;27;20730;-70
2021/12/29 00:44:16;;;;;;;7.90;2.20;;;;;;;10.75;68.06;96326.19;8517108;27;20229;-74
2021/12/29 00:48:20;;;;;;;7.20;1.90;;;;;;;10.55;67.86;96350.91;8517218;27;20235;-73
2021/12/29 00:52:23;;;;;;;6.20;1.93;;;;;;;10.39;68.55;96352.91;8516606;27;20233;-72
2021/12/29 00:56:27;;;;;;;6.77;1.80;;;;;;;10.16;70.04;96360.44;8516868;27;20520;-71
2021/12/29 01:00:30;;;;;;;6.70;2.03;;;;;;;10.33;68.89;96365.31;8513451;27;20229;-72
2021/12/29 01:04:33;;;;;;;5.50;2.00;;;;;;;10.43;68.95;96377.63;8453512;28;20241;-72
2021/12/29 01:08:37;;;;;;;5.63;1.77;;;;;;;10.33;69.44;96383.44;8448963;28;20236;-72
2021/12/29 01:12:47;;;;;;;6.03;1.60;;;;;;;10.33;69.47;96387.78;8448452;28;20401;-72
2021/12/29 01:16:50;;;;;;;6.30;1.80;;;;;;;10.37;69.76;96400.41;8448707;28;20416;-72
2021/12/29 01:20:53;;;;;;;4.73;1.50;;;;;;;10.29;69.99;96412.19;8448686;28;20424;-71
2021/12/29 01:24:56;;;;;;;6.47;1.83;;;;;;;10.12;70.46;96418.50;8448343;28;20237;-71
2021/12/29 01:29:00;;;;;;;5.83;1.80;;;;;;;10.28;70.42;96426.03;8447985;28;20234;-72
2021/12/29 01:33:06;;;;;;;6.83;1.87;;;;;;;10.27;70.74;96424.41;8448011;28;20416;-72
2021/12/29 01:37:10;;;;;;;5.70;1.67;;;;;;;10.19;70.62;96435.28;8481513;28;20232;-73
2021/12/29 01:41:14;;;;;;;5.27;1.60;;;;;;;10.20;71.41;96454.19;8481604;28;20467;-72
2021/12/29 01:45:18;;;;;;;6.40;1.50;;;;;;;10.30;71.21;96437.13;8483699;28;20197;-72
2021/12/29 01:49:22;;;;;;;4.10;1.40;;;;;;;10.26;71.24;96441.69;8483397;28;20431;-73
2021/12/29 01:53:28;;;;;;;5.40;1.67;;;;;;;10.26;71.75;96461.53;8481281;28;20240;-73
2021/12/29 01:57:32;;;;;;;5.90;1.40;;;;;;;10.19;71.45;96468.91;8481236;28;20255;-73
2021/12/29 02:01:36;;;;;;;6.53;1.97;;;;;;;10.28;71.55;96465.72;8480667;28;20242;-71
2021/12/29 02:05:40;;;;;;;6.60;1.50;;;;;;;10.23;71.48;96460.00;8480106;28;20514;-71
2021/12/29 02:09:43;;;;;;;5.50;1.57;;;;;;;10.23;71.61;96477.28;8480632;28;20233;-71
2021/12/29 02:13:46;;;;;;;3.67;1.13;;;;;;;10.15;71.73;96477.81;8480662;28;20244;-71
2021/12/29 02:17:51;;;;;;;4.50;1.53;;;;;;;10.07;71.55;96486.06;8480625;28;20237;-71
2021/12/29 02:22:02;;;;;;;3.63;1.17;;;;;;;9.95;72.43;96497.19;8480733;28;20536;-71
2021/12/29 02:26:05;;;;;;;4.80;1.50;;;;;;;10.21;71.23;96503.25;8480838;28;20638;-71
2021/12/29 02:30:10;;;;;;;6.23;1.33;;;;;;;10.17;71.90;96501.81;8479955;28;20237;-71
2021/12/29 02:34:15;;;;;;;4.30;1.33;;;;;;;10.17;72.10;96501.81;8480264;28;20226;-71
2021/12/29 02:38:26;;;;;;;2.03;0.90;;;;;;;9.97;72.32;96510.88;8478138;28;20229;-71
2021/12/29 02:42:31;;;;;;;3.00;1.30;;;;;;;9.93;72.90;96523.16;8477318;28;20233;-71
2021/12/29 02:46:36;;;;;;;2.53;0.83;;;;;;;9.98;72.80;96541.81;8479113;28;20229;-71
2021/12/29 02:50:41;;;;;;;3.60;1.20;;;;;;;10.09;72.27;96541.13;8479329;28;20225;-71
2021/12/29 02:54:45;;;;;;;3.97;0.83;;;;;;;10.08;72.14;96569.66;8479132;28;20498;-71
2021/12/29 02:58:48;;;;;;;3.40;0.90;;;;;;;10.08;72.18;96564.50;8477376;28;20229;-70
2021/12/29 03:02:51;;;;;;;2.73;1.00;;;;;;;9.98;72.54;96579.78;8478956;28;20225;-70
2021/12/29 03:06:54;;;;;;;2.83;1.00;;;;;;;10.05;72.86;96578.47;8478800;28;20259;-71
2021/12/29 03:10:59;;;;;;;3.43;0.97;;;;;;;10.19;72.15;96595.66;8479005;28;20241;-71
2021/12/29 03:15:02;;;;;;;3.13;0.90;;;;;;;10.09;72.00;96607.53;8478764;28;20262;-70
2021/12/29 03:19:06;;;;;;;1.90;0.90;;;;;;;10.06;71.87;96607.72;8482583;28;20229;-70
2021/12/29 03:23:09;;;;;;;2.40;0.90;;;;;;;10.00;72.48;96608.94;8474465;28;20523;-71
2021/12/29 03:27:14;;;;;;;1.60;0.77;;;;;;;10.01;72.65;96618.34;8484028;28;20327;-71
2021/12/29 03:31:18;;;;;;;2.30;0.87;;;;;;;10.22;72.45;96631.66;8484190;28;20408;-71
2021/12/29 03:35:21;;;;;;;2.47;1.10;;;;;;;10.15;72.31;96630.44;8484062;28;20221;-71
2021/12/29 03:39:26;;;;;;;4.03;0.90;;;;;;;9.86;72.78;96640.88;8484011;28;20229;-71
2021/12/29 03:43:32;;;;;;;3.57;1.10;;;;;;;10.10;72.48;96628.13;8482321;28;20237;-71
2021/12/29 03:47:35;;;;;;;2.80;1.00;;;;;;;10.12;72.29;96646.97;8483713;28;20225;-70
2021/12/29 03:51:38;;;;;;;4.33;0.90;;;;;;;10.17;71.69;96654.44;8483707;28;20232;-71
2021/12/29 03:55:41;;;;;;;2.23;0.90;;;;;;;10.27;71.50;96652.09;8483547;28;20221;-71
2021/12/29 03:59:45;;;;;;;2.53;1.13;;;;;;;10.13;71.70;96650.41;8483406;28;20235;-71
2021/12/29 04:03:48;;;;;;;3.20;0.97;;;;;;;10.14;71.83;96652.88;8481559;28;20229;-70
2021/12/29 04:07:54;;;;;;;3.60;1.10;;;;;;;10.15;71.67;96664.06;8483554;28;20501;-71
2021/12/29 04:11:56;;;;;;;2.97;1.03;;;;;;;10.17;71.60;96672.56;8483261;28;20262;-70
2021/12/29 04:16:01;;;;;;;2.70;1.03;;;;;;;10.13;71.53;96679.66;8483050;28;20424;-71
2021/12/29 04:24:26;;;;;;;3.23;0.87;;;;;;;10.08;71.91;96684.28;8481540;28;20286;-71
2021/12/29 04:28:30;;;;;;;2.23;0.70;;;;;;;10.15;71.51;96695.94;8481727;28;20407;-71
2021/12/29 04:32:34;;;;;;;3.97;0.97;;;;;;;10.09;71.97;96709.25;8482578;28;20240;-71
2021/12/29 04:36:37;;;;;;;2.37;0.90;;;;;;;10.17;72.08;96709.59;8482555;28;20229;-71
2021/12/29 04:40:40;;;;;;;1.83;0.80;;;;;;;10.15;72.22;96723.56;8482278;28;20233;-71
2021/12/29 04:44:43;;;;;;;1.30;0.67;;;;;;;10.13;71.87;96730.59;8482043;28;20232;-71
2021/12/29 04:48:51;;;;;;;1.83;0.80;;;;;;;10.09;71.68;96735.13;8481812;28;20218;-71
2021/12/29 04:52:56;;;;;;;2.27;0.93;;;;;;;10.29;71.84;96733.03;8480331;28;20222;-71
2021/12/29 04:56:59;;;;;;;2.87;1.03;;;;;;;10.37;71.53;96736.00;8481226;28;20446;-71
2021/12/29 05:01:02;;;;;;;3.00;0.90;;;;;;;10.32;71.15;96748.41;8479186;28;20228;-70
2021/12/29 05:05:19;;;;;;;1.97;0.80;;;;;;;10.28;71.17;96745.16;8481206;28;20229;-71
2021/12/29 05:09:22;;;;;;;2.77;1.00;;;;;;;10.23;71.25;96748.94;8478783;28;20221;-71
2021/12/29 05:13:27;;;;;;;1.70;0.80;;;;;;;10.15;70.92;96758.00;8480412;28;20229;-71
2021/12/29 05:17:30;;;;;;;2.87;0.90;;;;;;;10.26;70.53;96770.28;8480733;28;20229;-71
2021/12/29 05:21:34;;;;;;;2.53;1.00;;;;;;;10.28;70.55;96775.34;8480589;28;20222;-71
2021/12/29 05:25:38;;;;;;;2.97;1.03;;;;;;;10.22;70.78;96793.84;8478604;28;20226;-71
2021/12/29 05:29:41;;;;;;;3.20;0.93;;;;;;;10.24;70.71;96792.00;8480290;28;20240;-71
2021/12/29 05:33:44;;;;;;;2.27;0.90;;;;;;;10.11;70.84;96808.28;8464679;28;20292;-70
2021/12/29 05:37:49;;;;;;;2.00;0.80;;;;;;;10.31;70.49;96801.09;8479823;28;20221;-71
2021/12/29 05:41:52;;;;;;;2.70;0.90;;;;;;;10.32;69.97;96807.94;8479754;28;20236;-70
2021/12/29 05:45:55;;;;;;;4.43;1.20;;;;;;;10.48;71.90;96810.38;8480037;28;20244;-70
2021/12/29 05:49:58;;;;;;;3.17;0.80;;;;;;;10.35;70.30;96805.97;8469606;28;20228;-70
2021/12/29 05:54:02;;;;;;;2.40;0.77;;;;;;;10.27;71.13;96812.53;8480031;28;20225;-70
2021/12/29 05:58:05;;;;;;;3.80;1.07;;;;;;;10.24;70.56;96826.47;8477952;28;20225;-70
2021/12/29 06:02:08;;;;;;;1.27;0.70;;;;;;;10.33;70.40;96825.94;8449418;28;20228;-71
2021/12/29 06:06:11;;;;;;;2.97;1.00;;;;;;;10.14;71.13;96822.78;8479772;28;20536;-71
2021/12/29 06:10:16;;;;;;;3.80;0.80;;;;;;;10.30;70.43;96845.94;8479861;28;20226;-71
2021/12/29 06:14:19;;;;;;;2.90;0.80;;;;;;;10.33;70.12;96863.94;8479716;28;20237;-71
2021/12/29 06:18:22;;;;;;;2.27;1.10;;;;;;;10.25;70.14;96872.13;8479882;28;20230;-71
2021/12/29 06:22:25;;;;;;;2.10;0.90;;;;;;;10.27;69.85;96875.44;8479622;28;20244;-71
2021/12/29 06:26:29;;;;;;;2.87;0.87;;;;;;;10.47;69.11;96879.44;8479737;28;20229;-70
2021/12/29 06:30:32;;;;;;;2.10;0.97;;;;;;;10.12;69.36;96890.13;8477551;28;20543;-70
2021/12/29 06:34:36;;;;;;;1.87;0.70;;;;;;;10.25;69.10;96882.47;8477463;28;20240;-70
2021/12/29 06:38:39;;;;;;;1.60;0.70;;;;;;;10.27;68.90;96884.97;8479421;28;20221;-70
2021/12/29 06:42:44;;;;;;;2.07;0.87;;;;;;;10.35;69.25;96904.31;8479392;28;20225;-70
2021/12/29 06:46:47;;;;;;;2.47;0.90;;;;;;;10.25;68.84;96898.00;8479132;28;20221;-70
2021/12/29 06:50:50;;;;;;;2.73;0.80;;;;;;;10.36;68.40;96911.16;8480313;28;20225;-70
2021/12/29 06:54:53;;;;;;;5.40;0.80;;;;;;;10.34;68.26;96925.94;8485814;28;20245;-71
2021/12/29 06:58:58;;;;;;;3.60;0.90;;;;;;;10.24;68.74;96942.88;8485502;28;20226;-70
2021/12/29 07:03:01;;;;;;;2.43;1.10;;;;;;;10.18;68.96;96945.84;8485131;28;20551;-70
2021/12/29 07:07:05;;;;;;;2.20;0.60;;;;;;;10.29;68.24;96953.00;8485037;28;20222;-71
2021/12/29 07:11:08;;;;;;;2.13;0.77;;;;;;;10.38;68.13;96962.81;8476314;28;20284;-71
2021/12/29 07:15:12;;;;;;;1.57;0.70;;;;;;;10.37;68.43;96974.09;8484764;28;20237;-71
2021/12/29 07:19:16;;;;;;;1.67;0.70;;;;;;;10.30;68.14;96976.22;8484711;28;20240;-71
2021/12/29 07:23:19;;;;;;;1.47;0.80;;;;;;;10.40;68.25;96993.81;8484761;28;20225;-71
2021/12/29 07:27:22;;;;;;;1.37;1.00;;;;;;;10.42;67.63;97010.06;8484478;28;20232;-70
2021/12/29 07:31:27;;;;;;;2.03;1.00;;;;;;;10.27;67.97;97015.19;8482344;28;20217;-71
2021/12/29 07:35:50;;;;;;;1.77;1.00;;;;;;;10.46;67.42;97006.38;8483494;28;20224;-71
2021/12/29 07:39:53;;;;;;;1.80;0.87;;;;;;;10.27;68.11;96997.06;8484316;28;20228;-70
2021/12/29 07:43:57;;;;;;;0.93;0.70;;;;;;;10.48;67.16;96999.34;8451977;28;20225;-70
2021/12/29 07:48:04;;;;;;;1.20;0.80;;;;;;;10.49;66.96;97006.16;8463377;28;20288;-70
2021/12/29 07:52:07;;;;;;;2.30;0.83;;;;;;;10.48;67.31;97010.53;8474902;28;20508;-71
2021/12/29 07:56:12;;;;;;;1.17;0.80;;;;;;;10.46;67.16;97017.56;8464401;28;20222;-71
2021/12/29 08:00:16;;;;;;;2.33;0.90;;;;;;;10.63;67.06;97015.72;8453596;28;20222;-70
2021/12/29 08:04:20;;;;;;;2.07;1.10;;;;;;;10.52;66.73;97021.53;8446573;28;20525;-70
2021/12/29 08:08:23;;;;;;;2.73;0.93;;;;;;;11.06;65.24;97015.69;8449214;28;20650;-70
2021/12/29 08:12:26;;;;;;;2.97;1.00;;;;;;;13.22;58.07;97025.84;8449180;28;20229;-70
2021/12/29 08:16:29;;;;;;;1.27;0.70;;;;;;;13.18;58.65;97040.81;8449243;28;20236;-71
2021/12/29 08:20:35;;;;;;;1.47;1.00;;;;;;;11.69;62.64;97041.16;8449111;28;20241;-71
2021/12/29 08:24:38;;;;;;;2.73;1.07;;;;;;;11.41;63.31;97054.19;8466999;28;20239;-71
2021/12/29 08:28:41;;;;;;;1.50;0.90;;;;;;;11.08;64.73;97068.25;8482485;28;20241;-70
2021/12/29 08:32:47;;;;;;;1.27;0.73;;;;;;;11.12;65.28;97070.59;8482406;28;20524;-71
2021/12/29 08:36:51;;;;;;;2.13;0.90;;;;;;;10.93;65.91;97080.41;8482290;28;20502;-70
2021/12/29 08:40:54;;;;;;;0.97;0.70;;;;;;;11.04;65.94;97088.38;8482175;28;20221;-71
2021/12/29 08:44:57;;;;;;;1.17;0.77;;;;;;;10.86;66.50;97090.28;8471740;28;20255;-71
2021/12/29 08:49:01;;;;;;;2.00;1.00;;;;;;;10.94;66.49;97089.81;8482025;28;20221;-70
2021/12/29 08:53:06;;;;;;;2.53;0.83;;;;;;;10.89;66.27;97102.22;8481586;28;20256;-71
2021/12/29 08:57:09;;;;;;;1.23;0.70;;;;;;;10.91;67.00;97100.38;8447558;28;20222;-71
2021/12/29 09:01:12;;;;;;;0.93;0.60;;;;;;;11.04;66.51;97103.91;8447633;28;20218;-70
2021/12/29 09:05:17;;;;;;;1.37;0.83;;;;;;;11.39;66.33;97110.47;8474319;28;20229;-71
2021/12/29 09:09:21;;;;;;;0.50;0.50;;;;;;;11.32;65.95;97115.19;8481195;28;20221;-71
2021/12/29 09:13:25;;;;;;;0.97;0.80;;;;;;;11.51;66.19;97120.06;8480666;28;20420;-71
2021/12/29 09:17:28;;;;;;;1.80;0.73;;;;;;;11.50;66.00;97134.81;8480984;28;20260;-71
2021/12/29 09:21:33;;;;;;;1.47;1.20;;;;;;;11.33;66.14;97141.03;8481046;28;20420;-70
2021/12/29 09:25:39;;;;;;;2.20;1.40;;;;;;;11.20;66.97;97145.28;8478469;28;20240;-71
2021/12/29 09:29:42;;;;;;;1.93;0.80;;;;;;;11.42;66.02;97149.97;8480527;28;20241;-71
2021/12/29 09:33:45;;;;;;;2.27;1.13;;;;;;;11.43;65.79;97145.66;8480227;28;20226;-70
2021/12/29 09:37:52;;;;;;;1.20;0.80;;;;;;;11.45;65.83;97138.63;8480215;28;20221;-70
2021/12/29 09:41:57;;;;;;;2.07;1.00;;;;;;;11.38;65.61;97145.09;8478151;28;20225;-70
2021/12/29 09:46:00;;;;;;;1.43;1.20;;;;;;;11.55;65.30;97152.66;8479648;28;20232;-70
2021/12/29 09:50:05;;;;;;;1.87;0.80;;;;;;;11.54;64.76;97163.97;8471238;28;20231;-71
2021/12/29 09:54:08;;;;;;;1.60;0.90;;;;;;;11.22;66.25;97171.09;8444486;28;20237;-71
2021/12/29 09:58:13;;;;;;;2.40;1.50;;;;;;;11.43;65.80;97162.03;8450012;28;20228;-71
2021/12/29 10:02:16;;;;;;;1.77;0.87;;;;;;;11.12;66.58;97173.41;8468539;28;20229;-71
2021/12/29 10:06:19;;;;;;;1.10;0.80;;;;;;;11.40;65.71;97175.16;8445452;28;20402;-71
2021/12/29 10:10:23;;;;;;;1.17;0.87;;;;;;;11.17;65.94;97180.91;8464537;28;20221;-70
2021/12/29 10:14:34;;;;;;;0.90;0.80;;;;;;;11.37;66.11;97172.78;8477667;28;20230;-70
2021/12/29 10:18:40;;;;;;;1.53;1.00;;;;;;;11.27;66.36;97187.19;8479149;28;20232;-70
2021/12/29 10:22:43;;;;;;;1.27;0.80;;;;;;;11.33;66.50;97192.03;8477046;28;20221;-70
2021/12/29 10:26:47;;;;;;;0.73;0.70;;;;;;;11.11;67.61;97185.50;8464762;28;20226;-70
2021/12/29 10:31:04;;;;;;;1.13;1.00;;;;;;;11.01;67.88;97193.94;8468793;28;20528;-71
2021/12/29 10:35:08;;;;;;;3.13;1.20;;;;;;;10.98;68.13;97196.69;8485387;28;20225;-71
2021/12/29 10:39:14;;;;;;;2.30;1.20;;;;;;;11.10;68.14;97202.00;8483566;28;20221;-71
2021/12/29 10:43:17;;;;;;;2.37;1.30;;;;;;;11.21;67.71;97203.13;8485621;28;20221;-70
2021/12/29 10:47:23;;;;;;;4.83;1.80;;;;;;;11.21;67.67;97193.56;8485504;28;20422;-70
2021/12/29 10:51:29;;;;;;;4.27;1.90;;;;;;;11.15;67.39;97199.94;8483640;28;20224;-71
2021/12/29 10:55:35;;;;;;;5.53;2.07;;;;;;;11.28;67.32;97209.63;8485483;28;20248;-71
2021/12/29 10:59:41;;;;;;;3.57;1.80;;;;;;;11.24;66.59;97208.97;8485624;28;20225;-70
2021/12/29 11:03:47;;;;;;;4.47;1.70;;;;;;;11.08;67.89;97209.03;8483255;28;20240;-70
2021/12/29 11:07:50;;;;;;;5.37;2.20;;;;;;;11.20;67.30;97223.03;8482548;28;20222;-70
2021/12/29 11:11:53;;;;;;;3.43;2.97;;;;;;;11.30;66.79;97220.72;8485235;28;20226;-70
2021/12/29 11:15:57;;;;;;;5.13;2.37;;;;;;;11.32;66.75;97219.69;8485718;28;20234;-70
2021/12/29 11:20:05;;;;;;;3.77;2.17;;;;;;;11.41;66.27;97217.50;8485724;28;20233;-70
2021/12/29 11:24:13;;;;;;;3.97;1.87;;;;;;;11.42;65.94;97219.16;8485420;28;20568;-71
2021/12/29 11:28:24;;;;;;;2.67;1.73;;;;;;;11.34;65.81;97206.66;8485494;28;20240;-70
2021/12/29 11:32:29;;;;;;;4.80;1.90;;;;;;;11.33;65.45;97200.63;8485605;28;20492;-70
2021/12/29 11:36:35;;;;;;;3.43;1.67;;;;;;;11.41;65.41;97201.94;8484976;28;20237;-70
2021/12/29 11:40:40;;;;;;;2.37;1.50;;;;;;;11.48;64.91;97203.22;8485266;28;20461;-70
2021/12/29 11:44:43;;;;;;;2.53;1.40;;;;;;;11.59;65.13;97211.19;8484976;28;20240;-70
2021/12/29 11:48:47;;;;;;;6.83;2.07;;;;;;;12.34;74.10;97210.94;8484868;28;20233;-66
2021/12/29 11:53:16;;;;;;;6.00;1.90;;;;;;;12.86;64.29;97211.94;8484711;28;20256;-70
2021/12/29 11:57:23;;;;;;;4.37;1.60;;;;;;;12.19;63.39;97209.31;8477044;28;20229;-70
2021/12/29 12:01:28;;;;;;;4.70;1.60;;;;;;;12.11;62.94;97215.00;8484407;28;20234;-70
2021/12/29 12:05:35;;;;;;;3.23;1.90;;;;;;;12.00;63.73;97213.06;8484332;28;20403;-70
2021/12/29 12:09:47;;;;;;;6.00;2.10;;;;;;;12.08;63.56;97220.38;8484163;28;20581;-69
2021/12/29 12:13:50;;;;;;;3.70;1.87;;;;;;;11.99;64.06;97224.34;8484089;28;20230;-70
2021/12/29 12:17:55;;;;;;;3.87;2.13;;;;;;;12.10;63.95;97215.91;8483979;28;20229;-70
2021/12/29 12:22:06;;;;;;;4.57;2.00;;;;;;;12.04;63.28;97214.53;8484432;28;20236;-70
2021/12/29 12:26:12;;;;;;;5.90;2.70;;;;;;;11.92;64.03;97213.53;8449891;28;20229;-71
2021/12/29 12:30:19;;;;;;;4.27;1.80;;;;;;;12.00;63.23;97215.66;8450095;28;20241;-71
2021/12/29 12:34:22;;;;;;;3.20;1.80;;;;;;;12.00;63.51;97217.41;8450191;28;20234;-71
2021/12/29 12:38:27;;;;;;;4.80;1.70;;;;;;;11.68;63.75;97222.78;8450069;28;20241;-70
2021/12/29 12:42:34;;;;;;;3.87;1.70;;;;;;;11.89;64.17;97234.47;8449298;28;20308;-70
2021/12/29 12:46:39;;;;;;;3.77;2.00;;;;;;;11.81;63.99;97238.44;8449178;28;20236;-70
2021/12/29 12:50:44;;;;;;;3.13;1.63;;;;;;;11.82;63.32;97240.94;8448724;28;20335;-69
2021/12/29 12:54:50;;;;;;;3.63;1.80;;;;;;;11.69;63.14;97250.38;8449278;28;20264;-71
2021/12/29 12:58:56;;;;;;;3.33;1.77;;;;;;;11.71;63.18;97241.59;8448926;28;20230;-71
2021/12/29 13:03:02;;;;;;;3.40;1.70;;;;;;;11.74;63.74;97243.97;8448412;28;20429;-71
2021/12/29 13:07:05;;;;;;;4.27;2.50;;;;;;;11.84;63.64;97249.47;8448951;28;20303;-71
2021/12/29 13:11:10;;;;;;;5.30;3.10;;;;;;;11.84;63.43;97248.63;8448191;28;20232;-71
2021/12/29 13:15:16;;;;;;;3.80;2.40;;;;;;;11.75;63.16;97265.59;8448603;28;20399;-71
2021/12/29 13:19:25;;;;;;;4.40;1.80;;;;;;;11.83;62.91;97260.75;8448367;28;20237;-72
2021/12/29 13:23:28;;;;;;;4.63;1.80;;;;;;;11.98;62.33;97256.44;8448650;28;20587;-72
2021/12/29 13:27:31;;;;;;;4.60;1.60;;;;;;;12.04;61.93;97257.81;8447350;28;20612;-72
2021/12/29 13:31:36;;;;;;;2.20;1.20;;;;;;;12.11;62.19;97269.50;8456434;28;20236;-72
2021/12/29 13:35:46;;;;;;;4.37;1.43;;;;;;;12.06;61.51;97284.50;8447892;28;20233;-71
2021/12/29 13:39:52;;;;;;;4.10;1.30;;;;;;;12.12;61.99;97271.97;8447723;28;20237;-62
2021/12/29 13:43:58;;;;;;;4.70;1.40;;;;;;;12.06;61.21;97282.75;8439645;28;20222;-63
2021/12/29 13:48:03;;;;;;;3.93;1.53;;;;;;;12.11;61.65;97283.31;8446927;28;20229;-64
2021/12/29 13:52:06;;;;;;;4.43;1.60;;;;;;;12.01;61.00;97281.34;8444861;28;20537;-64
2021/12/29 13:56:12;;;;;;;6.17;1.60;;;;;;;12.03;61.45;97292.47;8446352;28;20218;-64
2021/12/29 14:00:16;;;;;;;5.53;1.60;;;;;;;11.73;61.13;97298.56;8445694;28;20229;-63
2021/12/29 14:04:23;;;;;;;5.93;1.80;;;;;;;11.88;61.18;97299.38;8446339;28;20230;-64
2021/12/29 14:08:26;;;;;;;5.53;1.80;;;;;;;11.76;61.31;97306.16;8444008;28;20234;-63
2021/12/29 14:12:33;;;;;;;8.50;2.17;;;;;;;11.92;60.39;97308.72;8446823;28;20245;-63
2021/12/29 14:16:44;;;;;;;4.87;1.60;;;;;;;11.97;60.36;97300.63;8447118;28;20238;-63
2021/12/29 14:20:51;;;;;;;6.93;2.10;;;;;;;11.81;60.98;97305.88;8447146;28;20234;-64
2021/12/29 14:24:54;;;;;;;5.63;1.90;;;;;;;11.67;60.66;97307.53;8447176;28;20234;-64
2021/12/29 14:28:59;;;;;;;6.93;1.87;;;;;;;11.97;60.26;97322.22;8447001;28;20241;-63
2021/12/29 14:33:03;;;;;;;8.17;2.30;;;;;;;11.92;60.90;97319.91;8447087;28;20307;-63
2021/12/29 14:37:11;;;;;;;5.07;1.90;;;;;;;11.83;61.49;97317.00;8446834;28;20240;-63
2021/12/29 14:41:18;;;;;;;6.03;2.57;;;;;;;11.95;60.97;97318.06;8446561;28;20233;-64
2021/12/29 14:45:22;;;;;;;4.50;1.97;;;;;;;12.19;67.96;97316.56;8446764;28;20244;-63
2021/12/29 14:49:27;;;;;;;5.77;2.10;;;;;;;12.09;60.72;97329.28;8446813;28;20230;-64
2021/12/29 14:53:32;;;;;;;7.67;2.67;;;;;;;12.05;60.29;97321.75;8446514;28;20234;-63
2021/12/29 14:57:36;;;;;;;5.87;2.57;;;;;;;12.03;60.43;97321.00;8446641;28;20234;-64
2021/12/29 15:01:41;;;;;;;5.43;2.30;;;;;;;11.92;60.97;97334.66;8446634;28;20234;-64
2021/12/29 15:05:48;;;;;;;8.10;2.43;;;;;;;11.76;61.00;97328.66;8446472;28;20238;-63
2021/12/29 15:09:59;;;;;;;6.30;2.20;;;;;;;11.81;61.75;97321.47;8446456;28;20234;-64
2021/12/29 15:14:13;;;;;;;6.23;1.90;;;;;;;11.87;61.30;97334.06;8450970;28;20237;-64
2021/12/29 15:18:17;;;;;;;6.10;2.00;;;;;;;11.82;61.87;97326.56;8452360;28;20234;-64
2021/12/29 15:22:20;;;;;;;4.90;2.20;;;;;;;11.85;61.41;97336.72;8452448;28;20226;-63
2021/12/29 15:26:24;;;;;;;7.20;2.30;;;;;;;11.81;61.69;97334.44;8452034;28;20291;-63
2021/12/29 15:30:29;;;;;;;5.13;1.77;;;;;;;11.78;61.42;97351.00;8452224;28;20553;-63
2021/12/29 15:34:32;;;;;;;8.90;2.90;;;;;;;11.81;61.61;97340.44;8452396;28;20233;-64
2021/12/29 15:38:35;;;;;;;4.80;2.13;;;;;;;11.72;61.44;97361.72;8451795;28;20528;-63
2021/12/29 15:42:40;;;;;;;6.27;3.00;;;;;;;11.85;61.54;97359.25;8451708;28;20230;-64
2021/12/29 15:46:43;;;;;;;6.50;3.10;;;;;;;11.81;61.83;97356.00;8451540;28;20233;-64
2021/12/29 15:50:46;;;;;;;4.97;2.10;;;;;;;11.84;61.83;97352.38;8451282;28;20545;-63
2021/12/29 15:54:49;;;;;;;7.20;2.87;;;;;;;11.81;62.30;97342.22;8451118;28;20234;-64
2021/12/29 15:58:54;;;;;;;6.43;2.93;;;;;;;11.87;62.05;97353.03;8450944;28;20257;-64
2021/12/29 16:02:57;;;;;;;6.53;2.70;;;;;;;11.81;61.81;97350.81;8450989;28;20233;-63
2021/12/29 16:07:00;;;;;;;4.27;1.93;;;;;;;11.84;62.24;97357.56;8450677;28;20305;-63
2021/12/29 16:11:06;;;;;;;6.30;3.00;;;;;;;11.88;62.05;97357.31;8450626;28;20234;-64
2021/12/29 16:15:12;;;;;;;9.57;6.27;;;;;;;11.87;61.82;97353.03;8465732;28;20226;-64
2021/12/29 16:19:15;;;;;;;17.67;9.17;;;;;;;11.84;62.39;97349.78;8450047;28;20229;-64
2021/12/29 16:23:18;;;;;;;15.20;9.07;;;;;;;11.86;62.18;97350.53;8447687;28;20441;-64
2021/12/29 16:27:22;;;;;;;11.97;6.50;;;;;;;11.71;62.30;97328.94;8420416;28;20386;-64
2021/12/29 16:31:27;;;;;;;10.67;4.80;;;;;;;11.73;62.71;97322.75;8449781;28;20237;-64
2021/12/29 16:35:30;;;;;;;6.10;3.10;;;;;;;11.78;62.66;97340.59;8449901;28;20233;-64
2021/12/29 16:39:33;;;;;;;7.67;2.87;;;;;;;11.68;63.25;97337.72;8449913;28;20425;-64
2021/12/29 16:43:37;;;;;;;8.27;4.10;;;;;;;11.49;63.79;97340.56;8449588;28;20229;-64
2021/12/29 16:47:42;;;;;;;7.53;3.90;;;;;;;11.54;63.87;97316.97;8449383;28;20233;-64
2021/12/29 16:51:46;;;;;;;9.53;4.37;;;;;;;11.59;64.23;97330.47;8449531;28;20241;-64
2021/12/29 16:55:50;;;;;;;5.87;3.30;;;;;;;11.56;64.00;97341.06;8449337;28;20238;-64
2021/12/29 16:59:53;;;;;;;8.97;4.10;;;;;;;11.57;64.29;97323.72;8449130;28;20234;-64
2021/12/29 17:03:58;;;;;;;8.03;3.57;;;;;;;11.56;64.86;97315.13;8417108;28;20235;-64
2021/12/29 17:08:01;;;;;;;9.37;4.30;;;;;;;11.58;64.63;97302.91;8415291;28;20230;-64
2021/12/29 17:12:05;;;;;;;9.77;3.83;;;;;;;11.58;64.86;97308.09;8415515;28;20231;-64
2021/12/29 17:16:08;;;;;;;8.93;3.67;;;;;;;11.36;66.23;97308.50;8414800;28;20548;-64
2021/12/29 17:20:13;;;;;;;6.23;3.37;;;;;;;11.74;64.60;97313.19;8415049;28;20254;-65
2021/12/29 17:24:16;;;;;;;6.77;4.07;;;;;;;11.64;64.88;97317.25;8436400;28;20234;-64
2021/12/29 17:28:20;;;;;;;8.40;3.67;;;;;;;11.65;64.86;97321.50;8456470;28;20242;-64
2021/12/29 17:32:23;;;;;;;7.57;4.17;;;;;;;11.81;64.67;97321.47;8431048;28;20227;-64
2021/12/29 17:36:28;;;;;;;8.57;5.20;;;;;;;11.62;64.92;97334.69;8414550;28;20238;-63
2021/12/29 17:40:31;;;;;;;14.10;7.30;;;;;;;11.58;65.06;97320.22;8456525;28;20229;-63
2021/12/29 17:44:34;;;;;;;15.00;8.10;;;;;;;11.42;65.66;97320.25;8481501;28;20251;-64
2021/12/29 17:48:37;;;;;;;11.63;6.77;;;;;;;11.63;65.16;97300.88;8481201;28;20241;-63
2021/12/29 17:52:42;;;;;;;6.40;4.73;;;;;;;11.72;65.24;97294.28;8481503;28;20474;-63
2021/12/29 17:56:45;;;;;;;7.77;4.50;;;;;;;11.59;65.54;97286.41;8474756;28;20241;-64
2021/12/29 18:00:48;;;;;;;7.43;4.53;;;;;;;11.72;65.19;97289.94;8447669;28;20225;-64
2021/12/29 18:04:51;;;;;;;6.17;3.93;;;;;;;11.76;65.02;97287.16;8447147;28;20322;-64
2021/12/29 18:08:56;;;;;;;8.50;5.03;;;;;;;11.75;64.89;97296.72;8447642;28;20240;-64
2021/12/29 18:12:59;;;;;;;11.47;7.10;;;;;;;11.69;65.11;97294.47;8447553;28;20289;-64
2021/12/29 18:17:02;;;;;;;7.37;4.50;;;;;;;11.67;64.97;97293.72;8447140;28;20230;-64
2021/12/29 18:21:06;;;;;;;6.57;4.13;;;;;;;11.86;64.84;97288.25;8447259;28;20229;-64
2021/12/29 18:25:12;;;;;;;9.70;4.07;;;;;;;11.72;64.76;97297.72;8446526;28;20230;-64
2021/12/29 18:29:16;;;;;;;9.20;4.33;;;;;;;11.53;65.68;97289.34;8447135;28;20241;-64
2021/12/29 18:33:19;;;;;;;5.73;4.17;;;;;;;11.40;65.96;97309.16;8447120;28;20230;-64
2021/12/29 18:37:22;;;;;;;41.53;34.40;;;;;;;12.56;75.01;97309.09;8446756;28;20234;-64
2021/12/29 18:41:27;;;;;;;22.40;15.57;;;;;;;13.56;65.49;97296.63;8446992;28;20541;-63
2021/12/29 18:45:29;;;;;;;7.73;5.90;;;;;;;13.47;62.42;97298.91;8437622;28;20234;-64
2021/12/29 18:49:33;;;;;;;6.63;3.90;;;;;;;12.77;62.14;97291.31;8452705;28;20541;-75
2021/12/29 18:53:36;;;;;;;32.70;20.90;;;;;;;12.30;63.65;97295.16;8453440;28;20230;-75
2021/12/29 18:57:41;;;;;;;24.87;16.03;;;;;;;12.09;63.93;97290.34;8452181;28;20238;-74
2021/12/29 19:01:44;;;;;;;20.33;12.37;;;;;;;11.61;66.25;97299.28;8462629;28;20240;-74
2021/12/29 19:05:49;;;;;;;25.77;19.80;;;;;;;11.81;65.61;97293.75;8468929;28;20540;-74
2021/12/29 19:09:52;;;;;;;18.57;11.43;;;;;;;11.70;65.91;97296.16;8468433;28;20232;-75
2021/12/29 19:13:57;;;;;;;9.03;6.10;;;;;;;11.61;66.53;97302.69;8469908;28;20225;-75
2021/12/29 19:18:00;;;;;;;8.77;5.43;;;;;;;11.67;66.07;97307.53;8468109;28;20232;-74